sensor_id;sensor_type;location;lat;lon;timestamp;P1;durP1;ratioP1;P2;durP2;ratioP2
35675;SDS011;21790;42.668;23.298;2023-05-10T00:36:14;8.48;;;7.03;;
35675;SDS011;21790;42.668;23.298;2023-05-10T00:38:39;9.15;;;6.55;;
35675;SDS011;21790;42.668;23.298;2023-05-10T01:03:27;8.50;;;7.20;;
35675;SDS011;21790;42.668;23.298;2023-05-10T01:08:46;8.00;;;7.18;;
35675;SDS011;21790;42.668;23.298;2023-05-10T01:48:51;6.72;;;5.88;;
35675;SDS011;21790;42.668;23.298;2023-05-10T01:54:25;5.57;;;4.68;;
35675;SDS011;21790;42.668;23.298;2023-05-10T01:56:59;6.72;;;5.50;;
35675;SDS011;21790;42.668;23.298;2023-05-10T01:59:30;5.95;;;5.05;;
35675;SDS011;21790;42.668;23.298;2023-05-10T02:02:06;5.85;;;5.25;;
35675;SDS011;21790;42.668;23.298;2023-05-10T02:04:44;5.65;;;4.82;;
35675;SDS011;21790;42.668;23.298;2023-05-10T02:07:12;7.30;;;4.97;;
35675;SDS011;21790;42.668;23.298;2023-05-10T02:09:43;9.45;;;5.38;;
35675;SDS011;21790;42.668;23.298;2023-05-10T02:12:18;8.80;;;5.20;;
35675;SDS011;21790;42.668;23.298;2023-05-10T02:17:17;6.28;;;5.13;;
35675;SDS011;21790;42.668;23.298;2023-05-10T02:19:45;5.63;;;4.57;;
35675;SDS011;21790;42.668;23.298;2023-05-10T02:22:12;7.32;;;5.30;;
35675;SDS011;21790;42.668;23.298;2023-05-10T02:24:42;9.18;;;4.53;;
35675;SDS011;21790;42.668;23.298;2023-05-10T02:27:12;6.80;;;4.95;;
35675;SDS011;21790;42.668;23.298;2023-05-10T02:29:43;12.52;;;5.57;;
35675;SDS011;21790;42.668;23.298;2023-05-10T02:32:11;10.50;;;5.13;;
35675;SDS011;21790;42.668;23.298;2023-05-10T02:34:41;9.18;;;4.90;;
35675;SDS011;21790;42.668;23.298;2023-05-10T02:39:53;7.65;;;4.72;;
35675;SDS011;21790;42.668;23.298;2023-05-10T02:42:32;7.53;;;5.20;;
35675;SDS011;21790;42.668;23.298;2023-05-10T02:45:01;13.07;;;5.70;;
35675;SDS011;21790;42.668;23.298;2023-05-10T02:52:44;9.20;;;6.10;;
35675;SDS011;21790;42.668;23.298;2023-05-10T02:55:14;7.75;;;5.20;;
35675;SDS011;21790;42.668;23.298;2023-05-10T02:57:57;7.88;;;5.57;;
35675;SDS011;21790;42.668;23.298;2023-05-10T03:07:58;8.60;;;5.38;;
35675;SDS011;21790;42.668;23.298;2023-05-10T03:10:29;9.60;;;5.75;;
35675;SDS011;21790;42.668;23.298;2023-05-10T03:13:16;8.13;;;5.57;;
35675;SDS011;21790;42.668;23.298;2023-05-10T03:15:58;6.88;;;5.32;;
35675;SDS011;21790;42.668;23.298;2023-05-10T03:18:43;11.93;;;5.20;;
35675;SDS011;21790;42.668;23.298;2023-05-10T03:21:13;8.20;;;5.78;;
35675;SDS011;21790;42.668;23.298;2023-05-10T03:23:46;9.30;;;5.53;;
35675;SDS011;21790;42.668;23.298;2023-05-10T03:26:17;8.05;;;5.63;;
35675;SDS011;21790;42.668;23.298;2023-05-10T03:28:48;8.00;;;5.97;;
35675;SDS011;21790;42.668;23.298;2023-05-10T03:31:21;7.13;;;5.60;;
35675;SDS011;21790;42.668;23.298;2023-05-10T03:33:48;6.63;;;5.30;;
35675;SDS011;21790;42.668;23.298;2023-05-10T03:36:16;8.82;;;5.57;;
35675;SDS011;21790;42.668;23.298;2023-05-10T03:38:45;15.30;;;7.28;;
35675;SDS011;21790;42.668;23.298;2023-05-10T03:41:11;7.43;;;5.47;;
35675;SDS011;21790;42.668;23.298;2023-05-10T03:43:39;7.38;;;5.35;;
35675;SDS011;21790;42.668;23.298;2023-05-10T03:46:04;7.30;;;5.75;;
35675;SDS011;21790;42.668;23.298;2023-05-10T03:48:38;6.63;;;5.22;;
35675;SDS011;21790;42.668;23.298;2023-05-10T03:51:04;7.05;;;5.75;;
35675;SDS011;21790;42.668;23.298;2023-05-10T03:53:41;11.32;;;4.95;;
35675;SDS011;21790;42.668;23.298;2023-05-10T03:59:03;8.13;;;5.30;;
35675;SDS011;21790;42.668;23.298;2023-05-10T04:01:44;11.38;;;4.72;;
35675;SDS011;21790;42.668;23.298;2023-05-10T04:04:15;8.45;;;4.55;;
35675;SDS011;21790;42.668;23.298;2023-05-10T04:06:41;8.75;;;5.28;;
35675;SDS011;21790;42.668;23.298;2023-05-10T04:09:07;7.53;;;4.97;;
35675;SDS011;21790;42.668;23.298;2023-05-10T04:11:33;5.82;;;4.90;;
35675;SDS011;21790;42.668;23.298;2023-05-10T04:13:59;8.73;;;5.45;;
35675;SDS011;21790;42.668;23.298;2023-05-10T04:16:24;11.00;;;5.47;;
35675;SDS011;21790;42.668;23.298;2023-05-10T04:21:46;9.07;;;5.70;;
35675;SDS011;21790;42.668;23.298;2023-05-10T04:24:13;8.82;;;5.82;;
35675;SDS011;21790;42.668;23.298;2023-05-10T04:26:42;8.30;;;5.47;;
35675;SDS011;21790;42.668;23.298;2023-05-10T04:29:07;8.07;;;5.20;;
35675;SDS011;21790;42.668;23.298;2023-05-10T04:31:33;11.73;;;5.20;;
35675;SDS011;21790;42.668;23.298;2023-05-10T04:36:32;6.82;;;5.05;;
35675;SDS011;21790;42.668;23.298;2023-05-10T04:41:44;7.70;;;5.43;;
35675;SDS011;21790;42.668;23.298;2023-05-10T04:44:09;9.10;;;5.53;;
35675;SDS011;21790;42.668;23.298;2023-05-10T04:46:35;11.48;;;5.10;;
35675;SDS011;21790;42.668;23.298;2023-05-10T04:49:01;10.20;;;5.35;;
35675;SDS011;21790;42.668;23.298;2023-05-10T04:51:26;12.15;;;5.88;;
35675;SDS011;21790;42.668;23.298;2023-05-10T04:53:52;9.02;;;5.70;;
35675;SDS011;21790;42.668;23.298;2023-05-10T04:56:17;11.02;;;5.97;;
35675;SDS011;21790;42.668;23.298;2023-05-10T04:58:43;9.02;;;5.75;;
35675;SDS011;21790;42.668;23.298;2023-05-10T05:01:08;11.10;;;6.00;;
35675;SDS011;21790;42.668;23.298;2023-05-10T05:03:35;11.40;;;6.45;;
35675;SDS011;21790;42.668;23.298;2023-05-10T05:06:02;14.63;;;6.18;;
35675;SDS011;21790;42.668;23.298;2023-05-10T05:08:28;17.52;;;8.68;;
35675;SDS011;21790;42.668;23.298;2023-05-10T05:10:53;8.85;;;6.60;;
35675;SDS011;21790;42.668;23.298;2023-05-10T05:13:19;10.70;;;6.35;;
35675;SDS011;21790;42.668;23.298;2023-05-10T05:15:45;7.57;;;5.72;;
35675;SDS011;21790;42.668;23.298;2023-05-10T05:18:11;9.52;;;6.13;;
35675;SDS011;21790;42.668;23.298;2023-05-10T05:20:36;10.35;;;6.40;;
35675;SDS011;21790;42.668;23.298;2023-05-10T05:23:04;9.48;;;6.30;;
35675;SDS011;21790;42.668;23.298;2023-05-10T05:25:31;9.63;;;6.70;;
35675;SDS011;21790;42.668;23.298;2023-05-10T05:27:57;8.20;;;6.43;;
35675;SDS011;21790;42.668;23.298;2023-05-10T05:30:26;9.68;;;6.53;;
35675;SDS011;21790;42.668;23.298;2023-05-10T05:32:53;7.88;;;6.35;;
35675;SDS011;21790;42.668;23.298;2023-05-10T05:35:18;9.02;;;6.30;;
35675;SDS011;21790;42.668;23.298;2023-05-10T05:37:45;9.73;;;6.82;;
35675;SDS011;21790;42.668;23.298;2023-05-10T05:40:15;9.77;;;6.72;;
35675;SDS011;21790;42.668;23.298;2023-05-10T05:42:40;9.98;;;7.28;;
35675;SDS011;21790;42.668;23.298;2023-05-10T05:45:06;10.50;;;6.53;;
35675;SDS011;21790;42.668;23.298;2023-05-10T05:47:34;10.82;;;6.80;;
35675;SDS011;21790;42.668;23.298;2023-05-10T05:50:00;13.32;;;7.20;;
35675;SDS011;21790;42.668;23.298;2023-05-10T05:52:26;10.80;;;7.47;;
35675;SDS011;21790;42.668;23.298;2023-05-10T05:54:56;12.77;;;8.25;;
35675;SDS011;21790;42.668;23.298;2023-05-10T05:57:24;11.90;;;7.57;;
35675;SDS011;21790;42.668;23.298;2023-05-10T06:00:00;11.50;;;7.88;;
35675;SDS011;21790;42.668;23.298;2023-05-10T06:02:25;12.45;;;8.88;;
35675;SDS011;21790;42.668;23.298;2023-05-10T06:04:53;14.20;;;9.25;;
35675;SDS011;21790;42.668;23.298;2023-05-10T06:12:22;12.93;;;9.82;;
35675;SDS011;21790;42.668;23.298;2023-05-10T06:14:53;14.65;;;9.48;;
35675;SDS011;21790;42.668;23.298;2023-05-10T06:17:23;14.88;;;9.40;;
35675;SDS011;21790;42.668;23.298;2023-05-10T06:19:56;14.10;;;8.85;;
35675;SDS011;21790;42.668;23.298;2023-05-10T06:25:06;17.38;;;10.52;;
35675;SDS011;21790;42.668;23.298;2023-05-10T06:27:40;12.30;;;8.77;;
35675;SDS011;21790;42.668;23.298;2023-05-10T06:30:06;18.05;;;10.60;;
35675;SDS011;21790;42.668;23.298;2023-05-10T06:35:21;13.60;;;9.50;;
35675;SDS011;21790;42.668;23.298;2023-05-10T06:40:34;12.15;;;8.35;;
35675;SDS011;21790;42.668;23.298;2023-05-10T06:43:01;17.02;;;9.77;;
35675;SDS011;21790;42.668;23.298;2023-05-10T06:45:26;13.15;;;9.43;;
35675;SDS011;21790;42.668;23.298;2023-05-10T06:50:21;13.68;;;8.90;;
35675;SDS011;21790;42.668;23.298;2023-05-10T06:55:26;15.30;;;9.32;;
35675;SDS011;21790;42.668;23.298;2023-05-10T07:00:38;23.17;;;10.60;;
35675;SDS011;21790;42.668;23.298;2023-05-10T07:03:11;17.27;;;9.70;;
35675;SDS011;21790;42.668;23.298;2023-05-10T07:05:44;18.52;;;10.55;;
35675;SDS011;21790;42.668;23.298;2023-05-10T07:08:10;14.30;;;10.32;;
35675;SDS011;21790;42.668;23.298;2023-05-10T07:10:36;19.27;;;9.85;;
35675;SDS011;21790;42.668;23.298;2023-05-10T07:13:09;14.40;;;9.57;;
35675;SDS011;21790;42.668;23.298;2023-05-10T07:15:36;15.07;;;10.20;;
35675;SDS011;21790;42.668;23.298;2023-05-10T07:18:14;16.90;;;9.55;;
35675;SDS011;21790;42.668;23.298;2023-05-10T07:20:40;18.73;;;9.45;;
35675;SDS011;21790;42.668;23.298;2023-05-10T07:23:14;17.00;;;10.13;;
35675;SDS011;21790;42.668;23.298;2023-05-10T07:28:23;16.50;;;10.80;;
35675;SDS011;21790;42.668;23.298;2023-05-10T07:30:49;15.68;;;10.25;;
35675;SDS011;21790;42.668;23.298;2023-05-10T07:33:15;18.27;;;9.27;;
35675;SDS011;21790;42.668;23.298;2023-05-10T07:35:57;15.10;;;9.52;;
35675;SDS011;21790;42.668;23.298;2023-05-10T07:41:08;13.77;;;9.38;;
35675;SDS011;21790;42.668;23.298;2023-05-10T07:43:47;16.30;;;9.40;;
35675;SDS011;21790;42.668;23.298;2023-05-10T07:46:24;14.32;;;10.10;;
35675;SDS011;21790;42.668;23.298;2023-05-10T07:48:50;13.48;;;9.50;;
35675;SDS011;21790;42.668;23.298;2023-05-10T07:53:50;20.92;;;11.15;;
35675;SDS011;21790;42.668;23.298;2023-05-10T07:56:22;16.77;;;10.77;;
35675;SDS011;21790;42.668;23.298;2023-05-10T07:58:49;16.10;;;10.70;;
35675;SDS011;21790;42.668;23.298;2023-05-10T08:01:17;17.05;;;10.73;;
35675;SDS011;21790;42.668;23.298;2023-05-10T08:06:31;19.05;;;11.23;;
35675;SDS011;21790;42.668;23.298;2023-05-10T08:09:08;20.63;;;9.82;;
35675;SDS011;21790;42.668;23.298;2023-05-10T08:11:42;15.30;;;10.45;;
35675;SDS011;21790;42.668;23.298;2023-05-10T08:14:14;16.40;;;11.20;;
35675;SDS011;21790;42.668;23.298;2023-05-10T08:16:40;18.33;;;11.32;;
35675;SDS011;21790;42.668;23.298;2023-05-10T08:19:13;14.88;;;10.63;;
35675;SDS011;21790;42.668;23.298;2023-05-10T08:24:53;15.40;;;11.05;;
35675;SDS011;21790;42.668;23.298;2023-05-10T08:27:20;15.13;;;10.73;;
35675;SDS011;21790;42.668;23.298;2023-05-10T08:29:46;18.40;;;10.90;;
35675;SDS011;21790;42.668;23.298;2023-05-10T08:32:16;13.88;;;9.73;;
35675;SDS011;21790;42.668;23.298;2023-05-10T08:37:25;17.38;;;11.30;;
35675;SDS011;21790;42.668;23.298;2023-05-10T08:40:00;14.73;;;9.60;;
35675;SDS011;21790;42.668;23.298;2023-05-10T08:42:28;14.55;;;10.48;;
35675;SDS011;21790;42.668;23.298;2023-05-10T08:45:21;11.93;;;9.02;;
35675;SDS011;21790;42.668;23.298;2023-05-10T08:47:49;16.48;;;10.70;;
35675;SDS011;21790;42.668;23.298;2023-05-10T08:50:32;14.95;;;10.93;;
35675;SDS011;21790;42.668;23.298;2023-05-10T08:53:01;15.45;;;10.63;;
35675;SDS011;21790;42.668;23.298;2023-05-10T09:00:46;19.52;;;11.70;;
35675;SDS011;21790;42.668;23.298;2023-05-10T09:03:20;14.43;;;9.90;;
35675;SDS011;21790;42.668;23.298;2023-05-10T09:05:48;17.20;;;11.15;;
35675;SDS011;21790;42.668;23.298;2023-05-10T09:08:20;18.85;;;12.32;;
35675;SDS011;21790;42.668;23.298;2023-05-10T09:13:27;16.58;;;11.43;;
35675;SDS011;21790;42.668;23.298;2023-05-10T09:15:58;15.18;;;10.98;;
35675;SDS011;21790;42.668;23.298;2023-05-10T09:18:35;16.35;;;12.15;;
35675;SDS011;21790;42.668;23.298;2023-05-10T09:21:01;15.40;;;11.48;;
35675;SDS011;21790;42.668;23.298;2023-05-10T09:23:29;16.52;;;10.55;;
35675;SDS011;21790;42.668;23.298;2023-05-10T09:26:13;20.02;;;12.23;;
35675;SDS011;21790;42.668;23.298;2023-05-10T09:29:14;17.08;;;10.82;;
35675;SDS011;21790;42.668;23.298;2023-05-10T09:37:21;15.88;;;10.60;;
35675;SDS011;21790;42.668;23.298;2023-05-10T09:43:00;16.98;;;11.00;;
35675;SDS011;21790;42.668;23.298;2023-05-10T09:45:28;16.38;;;11.25;;
35675;SDS011;21790;42.668;23.298;2023-05-10T09:50:31;13.48;;;10.55;;
35675;SDS011;21790;42.668;23.298;2023-05-10T09:53:05;14.73;;;10.65;;
35675;SDS011;21790;42.668;23.298;2023-05-10T09:58:22;13.65;;;10.48;;
35675;SDS011;21790;42.668;23.298;2023-05-10T10:00:49;15.05;;;10.52;;
35675;SDS011;21790;42.668;23.298;2023-05-10T10:03:20;14.90;;;10.65;;
35675;SDS011;21790;42.668;23.298;2023-05-10T10:05:53;12.07;;;9.70;;
35675;SDS011;21790;42.668;23.298;2023-05-10T10:08:25;18.58;;;11.23;;
35675;SDS011;21790;42.668;23.298;2023-05-10T10:10:59;23.75;;;11.80;;
35675;SDS011;21790;42.668;23.298;2023-05-10T10:13:41;20.35;;;10.93;;
35675;SDS011;21790;42.668;23.298;2023-05-10T10:16:09;16.70;;;10.05;;
35675;SDS011;21790;42.668;23.298;2023-05-10T10:21:25;18.05;;;10.65;;
35675;SDS011;21790;42.668;23.298;2023-05-10T10:26:50;17.92;;;11.48;;
35675;SDS011;21790;42.668;23.298;2023-05-10T10:35:23;15.13;;;9.77;;
35675;SDS011;21790;42.668;23.298;2023-05-10T10:49:15;13.77;;;9.25;;
35675;SDS011;21790;42.668;23.298;2023-05-10T10:55:24;12.98;;;9.23;;
35675;SDS011;21790;42.668;23.298;2023-05-10T10:58:00;16.65;;;8.65;;
35675;SDS011;21790;42.668;23.298;2023-05-10T11:00:36;12.52;;;9.32;;
35675;SDS011;21790;42.668;23.298;2023-05-10T11:03:09;22.27;;;8.15;;
35675;SDS011;21790;42.668;23.298;2023-05-10T11:05:57;20.25;;;8.90;;
35675;SDS011;21790;42.668;23.298;2023-05-10T11:11:17;16.60;;;8.60;;
35675;SDS011;21790;42.668;23.298;2023-05-10T11:13:45;15.75;;;9.07;;
35675;SDS011;21790;42.668;23.298;2023-05-10T11:16:22;12.25;;;7.88;;
35675;SDS011;21790;42.668;23.298;2023-05-10T11:19:07;13.02;;;8.57;;
35675;SDS011;21790;42.668;23.298;2023-05-10T11:21:44;10.77;;;8.38;;
35675;SDS011;21790;42.668;23.298;2023-05-10T11:24:59;19.63;;;9.02;;
35675;SDS011;21790;42.668;23.298;2023-05-10T11:35:07;16.98;;;8.45;;
35675;SDS011;21790;42.668;23.298;2023-05-10T11:37:36;13.93;;;7.68;;
35675;SDS011;21790;42.668;23.298;2023-05-10T11:40:11;15.50;;;9.20;;
35675;SDS011;21790;42.668;23.298;2023-05-10T15:39:15;14.40;;;9.38;;
35675;SDS011;21790;42.668;23.298;2023-05-10T15:41:42;13.48;;;9.43;;
